createdAt,value
2023-05-02T00:01:15.173Z,97415.52
2023-05-02T00:10:54.357Z,97403.46
2023-05-02T00:13:45.139Z,97402.09
2023-05-02T00:16:17.294Z,97404.30
2023-05-02T00:19:33.004Z,97399.64
2023-05-02T00:22:49.645Z,97391.72
2023-05-02T00:28:34.413Z,97396.64
2023-05-02T00:34:55.348Z,97398.55
2023-05-02T00:40:53.555Z,97406.45
2023-05-02T00:43:32.542Z,97405.64
2023-05-02T00:49:44.012Z,97403.72
2023-05-02T00:52:20.180Z,97405.38
2023-05-02T00:55:35.268Z,97405.63
2023-05-02T00:58:18.032Z,97409.19
2023-05-02T01:04:37.828Z,97410.00
2023-05-02T01:11:22.326Z,97416.84
2023-05-02T01:13:53.666Z,97413.03
2023-05-02T01:16:46.053Z,97415.47
2023-05-02T01:19:37.935Z,97418.20
2023-05-02T01:22:35.876Z,97428.08
2023-05-02T01:26:10.323Z,97431.89
2023-05-02T01:28:57.838Z,97440.11
2023-05-02T01:31:57.388Z,97442.84
2023-05-02T01:34:56.245Z,97445.32
2023-05-02T01:37:32.493Z,97448.61
2023-05-02T01:44:03.682Z,97435.74
2023-05-02T01:46:51.805Z,97451.91
2023-05-02T01:53:07.790Z,97453.83
2023-05-02T01:55:44.142Z,97460.38
2023-05-02T02:01:52.217Z,97464.22
2023-05-02T02:04:25.540Z,97463.13
2023-05-02T02:07:39.194Z,97466.42
2023-05-02T02:29:32.254Z,97485.86
2023-05-02T02:32:03.684Z,97493.48
2023-05-02T02:34:51.024Z,97494.59
2023-05-02T02:37:38.543Z,97498.70
2023-05-02T02:40:43.040Z,97495.67
2023-05-02T02:43:39.944Z,97507.72
2023-05-02T02:46:47.321Z,97512.90
2023-05-02T02:49:45.326Z,97511.27
2023-05-02T02:53:01.235Z,97519.73
2023-05-02T02:55:59.089Z,97511.56
2023-05-02T02:58:37.350Z,97523.02
2023-05-02T03:03:55.980Z,97529.86
2023-05-02T03:06:28.085Z,97532.33
2023-05-02T03:08:58.724Z,97535.07
2023-05-02T03:11:29.581Z,97527.97
2023-05-02T03:14:01.632Z,97532.07
2023-05-02T03:17:10.037Z,97538.06
2023-05-02T03:20:16.359Z,97534.25
2023-05-02T03:23:05.112Z,97535.36
2023-05-02T03:31:44.741Z,97542.20
2023-05-02T03:37:04.314Z,97532.06
2023-05-02T03:39:34.255Z,97532.06
2023-05-02T03:42:04.369Z,97529.31
2023-05-02T03:44:50.076Z,97533.69
2023-05-02T03:47:21.641Z,97530.42
2023-05-02T03:53:16.603Z,97532.05
2023-05-02T03:56:21.504Z,97529.87
2023-05-02T03:59:34.067Z,97527.39
2023-05-02T04:02:18.656Z,97522.21
2023-05-02T04:09:25.826Z,97526.84
2023-05-02T04:10:19.667Z,97525.20
2023-05-02T04:12:49.906Z,97527.67
2023-05-02T04:15:20.494Z,97532.84
2023-05-02T04:17:50.584Z,97526.85
2023-05-02T04:20:27.148Z,97525.19
2023-05-02T04:26:07.421Z,97526.84
2023-05-02T04:29:01.851Z,97528.77
2023-05-02T04:31:49.688Z,97523.55
2023-05-02T04:34:19.667Z,97527.66
2023-05-02T04:36:49.724Z,97527.09
2023-05-02T04:39:19.773Z,97528.20
2023-05-02T04:41:50.270Z,97525.17
2023-05-02T04:44:21.355Z,97533.11
2023-05-02T04:47:01.470Z,97535.58
2023-05-02T04:49:59.665Z,97531.73
2023-05-02T04:53:07.053Z,97533.09
2023-05-02T04:56:11.389Z,97531.47
2023-05-02T04:59:03.617Z,97535.83
2023-05-02T05:01:49.129Z,97532.02
2023-05-02T05:04:19.672Z,97533.38
2023-05-02T05:06:50.148Z,97534.45
2023-05-02T05:09:20.147Z,97532.81
2023-05-02T05:11:50.120Z,97535.28
2023-05-02T05:14:20.039Z,97531.44
2023-05-02T05:16:52.407Z,97513.88
2023-05-02T05:19:22.731Z,97537.16
2023-05-02T05:21:53.650Z,97541.00
2023-05-02T05:24:24.037Z,97536.60
2023-05-02T05:26:55.851Z,97533.56
2023-05-02T05:29:26.171Z,97518.53
2023-05-02T05:32:37.129Z,97520.42
2023-05-02T05:37:56.260Z,97542.30
2023-05-02T05:40:28.493Z,97536.84
2023-05-02T05:42:58.409Z,97534.64
2023-05-02T05:45:28.675Z,97545.31
2023-05-02T05:47:59.049Z,97542.84
2023-05-02T05:50:29.297Z,97538.17
2023-05-02T05:53:04.120Z,97538.17
2023-05-02T05:55:35.982Z,97532.45
2023-05-02T05:58:05.555Z,97529.97
2023-05-02T06:00:38.918Z,97529.16
2023-05-02T06:03:10.063Z,97528.89
2023-05-02T06:05:40.370Z,97525.89
2023-05-02T06:08:24.431Z,97528.33
2023-05-02T06:11:20.838Z,97531.86
2023-05-02T06:14:30.683Z,97507.23
2023-05-02T06:17:03.408Z,97529.13
2023-05-02T06:19:33.298Z,97534.88
2023-05-02T06:22:04.594Z,97532.39
2023-05-02T06:24:34.350Z,97528.03
2023-05-02T06:27:04.130Z,97525.55
2023-05-02T06:29:47.982Z,97528.28
2023-05-02T06:32:24.160Z,97526.09
2023-05-02T06:35:30.571Z,97523.91
2023-05-02T06:41:39.650Z,97509.97
2023-05-02T06:47:21.522Z,97515.97
2023-05-02T06:50:41.254Z,97516.77
2023-05-02T07:02:38.047Z,97506.63
2023-05-02T07:05:23.856Z,97508.55
2023-05-02T07:08:18.788Z,97504.43
2023-05-02T07:13:42.526Z,97511.55
2023-05-02T07:16:12.792Z,97508.80
2023-05-02T07:18:43.161Z,97508.25
2023-05-02T07:21:13.090Z,97505.50
2023-05-02T07:23:50.133Z,97506.88
2023-05-02T07:26:33.443Z,97504.12
2023-05-02T07:42:33.837Z,97506.84
2023-05-02T07:45:15.398Z,97510.91
2023-05-02T07:51:11.868Z,97505.15
2023-05-02T07:53:41.828Z,97509.22
2023-05-02T07:56:31.954Z,97515.20
2023-05-02T08:02:01.299Z,97518.73
2023-05-02T08:04:31.689Z,97518.17
2023-05-02T08:07:01.720Z,97528.83
2023-05-02T08:09:31.876Z,97526.64
2023-05-02T08:12:03.367Z,97522.80
2023-05-02T08:14:40.851Z,97522.53
2023-05-02T08:20:48.461Z,97519.23
2023-05-02T08:23:36.061Z,97514.88
2023-05-02T08:29:26.992Z,97519.20
2023-05-02T08:31:57.545Z,97523.55
2023-05-02T08:34:27.465Z,97519.72
2023-05-02T08:36:58.751Z,97517.52
2023-05-02T08:39:28.740Z,97518.59
2023-05-02T08:41:58.652Z,97519.96
2023-05-02T08:48:16.801Z,97530.84
2023-05-02T08:54:33.967Z,97542.03
2023-05-02T08:59:53.583Z,97534.64
2023-05-02T09:02:56.625Z,97537.66
2023-05-02T09:06:01.366Z,97539.27
2023-05-02T09:08:45.150Z,97537.33
2023-05-02T09:11:48.831Z,97538.98
2023-05-02T09:14:39.213Z,97541.41
2023-05-02T09:18:02.097Z,97538.95
2023-05-02T09:19:41.233Z,97535.66
2023-05-02T09:22:11.349Z,97533.48
2023-05-02T09:24:42.615Z,97538.94
2023-05-02T09:27:12.496Z,97538.91
2023-05-02T09:29:47.715Z,97539.46
2023-05-02T09:32:58.641Z,97542.19
2023-05-02T09:35:44.529Z,97541.89
2023-05-02T09:38:42.197Z,97541.84
2023-05-02T09:41:12.497Z,97546.50
2023-05-02T09:43:43.577Z,97545.42
2023-05-02T09:46:14.088Z,97546.22
2023-05-02T09:48:59.330Z,97547.27
2023-05-02T09:51:29.362Z,97545.38
2023-05-02T09:54:00.242Z,97537.44
2023-05-02T09:59:50.011Z,97533.88
2023-05-02T10:05:08.770Z,97549.66
2023-05-02T10:07:38.703Z,97550.45
2023-05-02T10:10:09.704Z,97553.70
2023-05-02T10:15:31.682Z,97554.30
2023-05-02T10:18:03.799Z,97567.04
2023-05-02T10:20:54.718Z,97565.92
2023-05-02T10:26:05.792Z,97575.98
2023-05-02T10:28:35.685Z,97577.08
2023-05-02T10:31:06.940Z,97574.08
2023-05-02T10:33:37.147Z,97576.51
2023-05-02T10:36:15.174Z,97583.87
2023-05-02T10:45:33.840Z,97595.54
2023-05-02T10:48:19.936Z,97602.08
2023-05-02T10:51:07.236Z,97608.33
2023-05-02T10:54:30.937Z,97618.66
2023-05-02T10:59:57.977Z,97631.72
2023-05-02T11:02:59.964Z,97632.77
2023-05-02T11:09:23.987Z,97635.47
2023-05-02T11:12:15.332Z,97644.73
2023-05-02T11:18:04.558Z,97653.16
2023-05-02T11:21:09.412Z,97646.28
2023-05-02T11:24:03.658Z,97662.66
2023-05-02T11:26:29.362Z,97671.08
2023-05-02T11:29:00.948Z,97662.02
2023-05-02T11:31:33.577Z,97666.69
2023-05-02T11:34:05.381Z,97675.11
2023-05-02T11:36:36.389Z,97684.64
2023-05-02T11:39:24.353Z,97682.47
2023-05-02T11:42:06.784Z,97684.61
2023-05-02T11:45:02.236Z,97688.42
2023-05-02T11:50:10.651Z,97690.03
2023-05-02T11:52:40.821Z,97687.57
2023-05-02T11:55:15.655Z,97681.54
2023-05-02T11:57:45.603Z,97679.36
2023-05-02T12:06:15.249Z,97680.03
2023-05-02T12:09:34.874Z,97695.09
2023-05-02T12:12:28.123Z,97699.42
2023-05-02T12:16:00.917Z,97707.87
2023-05-02T12:18:31.822Z,97712.19
2023-05-02T12:21:31.074Z,97718.97
2023-05-02T12:24:37.637Z,97719.78
2023-05-02T12:27:15.532Z,97727.64
2023-05-02T12:30:16.128Z,97731.45
2023-05-02T12:33:06.632Z,97742.08
2023-05-02T12:35:36.775Z,97748.58
2023-05-02T12:38:13.966Z,97757.61
2023-05-02T12:40:55.509Z,97754.15
2023-05-02T12:43:26.024Z,97759.64
2023-05-02T12:46:13.589Z,97761.58
2023-05-02T12:48:45.524Z,97765.16
2023-05-02T12:51:43.970Z,97772.29
2023-05-02T12:54:16.597Z,97776.69
2023-05-02T13:00:16.159Z,97783.89
2023-05-02T13:03:14.572Z,97782.30
2023-05-02T13:08:39.297Z,97783.16
2023-05-02T13:11:09.240Z,97789.97
2023-05-02T13:13:39.267Z,97792.69
2023-05-02T13:16:12.918Z,97794.05
2023-05-02T13:18:45.314Z,97789.69
2023-05-02T13:21:27.182Z,97800.88
2023-05-02T13:24:46.896Z,97799.51
2023-05-02T13:27:35.516Z,97803.08
2023-05-02T13:30:17.308Z,97815.34
2023-05-02T13:32:47.520Z,97817.53
2023-05-02T13:35:18.968Z,97821.08
2023-05-02T13:37:48.990Z,97822.16
2023-05-02T13:40:19.100Z,97827.07
2023-05-02T13:43:07.951Z,97815.86
2023-05-02T13:45:39.317Z,97820.80
2023-05-02T13:51:39.213Z,97819.72
2023-05-02T13:54:32.361Z,97822.98
2023-05-02T13:57:40.718Z,97826.77
2023-05-02T14:03:35.408Z,97830.66
2023-05-02T14:06:39.944Z,97837.39
2023-05-02T14:15:23.038Z,97835.75
2023-05-02T14:17:53.244Z,97841.72
2023-05-02T14:20:24.932Z,97854.53
2023-05-02T14:22:56.263Z,97844.72
2023-05-02T14:25:26.817Z,97858.62
2023-05-02T14:27:57.808Z,97861.34
2023-05-02T14:30:34.547Z,97860.52
2023-05-02T14:33:27.780Z,97867.11
2023-05-02T14:38:47.219Z,97876.09
2023-05-02T14:41:17.119Z,97884.83
2023-05-02T14:43:48.518Z,97889.97
2023-05-02T14:46:18.400Z,97866.08
2023-05-02T14:48:48.326Z,97887.78
2023-05-02T14:51:52.710Z,97886.70
2023-05-02T14:54:40.106Z,97880.42
2023-05-02T15:03:56.643Z,97886.42
2023-05-02T15:09:52.259Z,97892.11
2023-05-02T15:12:29.271Z,97893.47
2023-05-02T15:15:00.307Z,97894.55
2023-05-02T15:17:32.417Z,97894.78
2023-05-02T15:20:02.575Z,97900.78
2023-05-02T15:22:32.828Z,97904.09
2023-05-02T15:28:21.999Z,97908.27
2023-05-02T15:30:52.077Z,97905.45
2023-05-02T15:33:48.366Z,97912.27
2023-05-02T15:36:35.710Z,97916.36
2023-05-02T15:41:58.651Z,97912.27
2023-05-02T15:44:29.859Z,97912.00
2023-05-02T15:47:00.541Z,97903.42
2023-05-02T15:49:34.519Z,97914.17
2023-05-02T15:52:21.331Z,97915.22
2023-05-02T15:54:52.947Z,97920.45
2023-05-02T15:58:15.274Z,97918.81
2023-05-02T16:00:45.536Z,97923.72
2023-05-02T16:03:48.078Z,97929.17
2023-05-02T16:09:36.766Z,97925.08
2023-05-02T16:12:08.034Z,97924.26
2023-05-02T16:14:37.915Z,97919.05
2023-05-02T16:17:09.437Z,97907.59
2023-05-02T16:19:39.562Z,97901.09
2023-05-02T16:22:10.620Z,97904.36
2023-05-02T16:25:08.638Z,97898.36
2023-05-02T16:27:50.923Z,97901.91
2023-05-02T16:30:54.914Z,97893.73
2023-05-02T16:36:41.975Z,97901.09
2023-05-02T16:39:11.850Z,97900.00
2023-05-02T16:41:42.078Z,97890.47
2023-05-02T16:44:11.954Z,97886.38
2023-05-02T16:46:42.221Z,97890.47
2023-05-02T16:49:12.199Z,97891.28
2023-05-02T16:51:57.164Z,97885.29
2023-05-02T16:54:54.211Z,97892.95
2023-05-02T17:00:54.334Z,97881.20
2023-05-02T17:03:15.373Z,97891.59
2023-05-02T17:05:45.246Z,97891.05
2023-05-02T17:08:15.596Z,97889.97
2023-05-02T17:13:48.256Z,97888.96
2023-05-02T17:19:27.746Z,97881.67
2023-05-02T17:25:38.072Z,97880.35
2023-05-02T17:28:44.002Z,97878.36
2023-05-02T17:31:14.185Z,97878.36
2023-05-02T17:33:56.073Z,97878.06
2023-05-02T17:36:27.132Z,97876.70
2023-05-02T17:38:57.144Z,97872.09
2023-05-02T17:41:28.612Z,97868.00
2023-05-02T17:43:59.233Z,97862.20
2023-05-02T17:46:31.842Z,97864.73
2023-05-02T17:52:07.477Z,97855.55
2023-05-02T17:57:30.742Z,97847.59
2023-05-02T18:00:01.775Z,97842.14
2023-05-02T18:02:34.598Z,97843.78
2023-05-02T18:05:04.941Z,97832.60
2023-05-02T18:07:35.139Z,97828.79
2023-05-02T18:10:25.546Z,97833.16
2023-05-02T18:13:04.996Z,97825.83
2023-05-02T18:15:34.310Z,97833.73
2023-05-02T18:18:04.268Z,97828.28
2023-05-02T18:20:34.356Z,97824.19
2023-05-02T18:23:04.449Z,97821.23
2023-05-02T18:25:36.499Z,97822.32
2023-05-02T18:28:20.265Z,97815.50
2023-05-02T18:31:20.025Z,97802.38
2023-05-02T18:37:18.819Z,97786.22
2023-05-02T18:40:11.544Z,97811.45
2023-05-02T18:46:14.663Z,97802.22
2023-05-02T18:49:13.423Z,97798.95
2023-05-02T18:51:46.005Z,97800.86
2023-05-02T18:54:15.214Z,97797.62
2023-05-02T18:56:45.124Z,97793.53
2023-05-02T18:59:15.336Z,97784.80
2023-05-02T19:01:46.941Z,97784.80
2023-05-02T19:04:37.833Z,97784.02
2023-05-02T19:07:31.033Z,97778.84
2023-05-02T19:10:32.712Z,97763.19
2023-05-02T19:13:31.765Z,97776.69
2023-05-02T19:16:26.112Z,97778.88
2023-05-02T19:25:44.114Z,97769.09
2023-05-02T19:31:26.365Z,97758.25
2023-05-02T19:34:32.505Z,97754.94
2023-05-02T19:37:24.499Z,97758.73
2023-05-02T19:40:15.740Z,97756.30
2023-05-02T19:42:45.673Z,97764.80
2023-05-02T19:45:15.722Z,97764.55
2023-05-02T19:47:46.311Z,97760.73
2023-05-02T19:50:17.320Z,97757.77
2023-05-02T19:52:47.339Z,97757.53
2023-05-02T19:58:34.697Z,97756.26
2023-05-02T20:01:18.018Z,97755.41
2023-05-02T20:03:48.111Z,97730.13
2023-05-02T20:06:18.291Z,97741.80
2023-05-02T20:08:48.388Z,97745.62
2023-05-02T20:11:37.360Z,97740.47
2023-05-02T20:14:08.885Z,97739.92
2023-05-02T20:16:39.082Z,97731.46
2023-05-02T20:19:31.942Z,97731.49
2023-05-02T20:22:17.901Z,97725.25
2023-05-02T20:24:48.001Z,97726.88
2023-05-02T20:27:19.589Z,97723.36
2023-05-02T20:29:50.803Z,97720.39
2023-05-02T20:32:23.399Z,97716.03
2023-05-02T20:35:17.564Z,97717.97
2023-05-02T20:37:51.769Z,97717.17
2023-05-02T20:41:30.773Z,97710.92
2023-05-02T20:43:48.735Z,97705.50
2023-05-02T20:49:31.100Z,97702.52
2023-05-02T20:52:26.415Z,97693.78
2023-05-02T20:55:00.089Z,97695.72
2023-05-02T20:57:32.046Z,97690.56
2023-05-02T21:00:04.696Z,97689.50
2023-05-02T21:02:36.856Z,97679.38
2023-05-02T21:05:11.302Z,97689.00
2023-05-02T21:07:45.421Z,97680.83
2023-05-02T21:13:38.923Z,97666.37
2023-05-02T21:19:35.556Z,97659.05
2023-05-02T21:22:05.475Z,97657.22
2023-05-02T21:24:35.483Z,97657.22
2023-05-02T21:27:05.737Z,97654.28
2023-05-02T21:29:35.750Z,97654.28
2023-05-02T21:32:23.604Z,97650.75
2023-05-02T21:35:05.334Z,97646.67
2023-05-02T21:41:01.596Z,97642.88
2023-05-02T21:43:42.163Z,97631.16
2023-05-02T21:49:02.104Z,97635.56
2023-05-02T21:51:34.704Z,97638.03
2023-05-02T21:54:04.981Z,97632.05
2023-05-02T21:56:37.495Z,97628.50
2023-05-02T22:02:17.976Z,97633.23
2023-05-02T22:05:33.086Z,97631.56
2023-05-02T22:08:12.336Z,97633.25
2023-05-02T22:11:08.870Z,97628.06
2023-05-02T22:14:33.320Z,97622.34
2023-05-02T22:16:56.679Z,97624.81
2023-05-02T22:23:10.581Z,97621.85
2023-05-02T22:25:54.033Z,97617.77
2023-05-02T22:31:57.994Z,97612.89
2023-05-02T22:34:52.377Z,97612.36
2023-05-02T22:37:53.922Z,97615.11
2023-05-02T22:40:48.590Z,97616.23
2023-05-02T22:43:18.920Z,97614.59
2023-05-02T22:45:50.334Z,97613.78
2023-05-02T22:48:20.343Z,97615.98
2023-05-02T22:50:50.380Z,97619.27
2023-05-02T22:53:21.791Z,97619.55
2023-05-02T22:55:55.418Z,97619.30
2023-05-02T23:01:12.777Z,97621.77
2023-05-02T23:03:43.845Z,97615.20
2023-05-02T23:06:14.013Z,97613.02
2023-05-02T23:08:45.280Z,97608.66
2023-05-02T23:14:23.777Z,97599.08
2023-05-02T23:17:11.776Z,97607.84
2023-05-02T23:23:15.069Z,97603.23
2023-05-02T23:25:57.067Z,97606.23
2023-05-02T23:29:16.751Z,97601.86
2023-05-02T23:31:00.603Z,97607.63
2023-05-02T23:33:32.749Z,97596.69
2023-05-02T23:36:03.791Z,97602.69
2023-05-02T23:38:39.641Z,97591.22
2023-05-02T23:41:11.087Z,97601.06
2023-05-02T23:47:51.357Z,97602.14
2023-05-02T23:50:58.131Z,97596.67
2023-05-02T23:53:28.071Z,97595.30
2023-05-02T23:56:05.541Z,97596.41
